Time;durP1;ratioP1;P1;durP2;ratioP2;P2;SDS_P1;SDS_P2;PMS_P1;PMS_P2;Temp;Humidity;BMP_temperature;BMP_pressure;BME280_temperature;BME280_humidity;BME280_pressure;Samples;Min_cycle;Max_cycle;Signal;HPM_P1;HPM_P2
2023/06/03 00:01:40;;;;;;;3.35;3.05;;;21.20;63.90;;;;;;4987843;28;20209;-67
2023/06/03 00:04:07;;;;;;;3.33;3.03;;;21.20;63.80;;;;;;4977201;28;20209;-67
2023/06/03 00:06:32;;;;;;;3.70;3.40;;;21.20;63.90;;;;;;4971803;28;20185;-67
2023/06/03 00:08:58;;;;;;;4.18;3.25;;;21.20;63.90;;;;;;4976507;28;20209;-67
2023/06/03 00:11:24;;;;;;;3.08;2.85;;;21.20;63.90;;;;;;4979882;28;20196;-67
2023/06/03 00:13:50;;;;;;;3.53;2.85;;;21.20;63.90;;;;;;4985600;28;20192;-67
2023/06/03 00:16:16;;;;;;;4.15;3.00;;;21.20;63.90;;;;;;4975584;28;20657;-67
2023/06/03 00:18:42;;;;;;;3.88;3.15;;;21.20;63.90;;;;;;4984014;28;20209;-67
2023/06/03 00:21:09;;;;;;;3.33;3.03;;;21.20;63.90;;;;;;4983854;28;20220;-67
2023/06/03 00:23:36;;;;;;;3.33;3.03;;;21.20;63.90;;;;;;4988293;28;20570;-67
2023/06/03 00:26:02;;;;;;;3.40;3.17;;;21.20;63.90;;;;;;4981087;28;20190;-67
2023/06/03 00:28:28;;;;;;;3.20;2.90;;;21.20;63.80;;;;;;4980677;28;20217;-67
2023/06/03 00:30:54;;;;;;;3.42;3.13;;;21.20;63.80;;;;;;4979729;28;20202;-67
2023/06/03 00:33:20;;;;;;;4.03;2.90;;;21.20;63.90;;;;;;4980904;28;20201;-67
2023/06/03 00:35:46;;;;;;;3.20;2.90;;;21.20;63.90;;;;;;4996155;28;20182;-67
2023/06/03 00:38:11;;;;;;;3.35;3.05;;;21.20;64.00;;;;;;4977015;28;20308;-68
2023/06/03 00:40:37;;;;;;;3.42;3.13;;;21.20;63.90;;;;;;4975007;28;20224;-67
2023/06/03 00:43:03;;;;;;;3.40;3.10;;;21.20;63.90;;;;;;4976222;28;20197;-67
2023/06/03 00:45:29;;;;;;;3.60;2.90;;;21.20;63.90;;;;;;5004097;28;20292;-67
2023/06/03 00:47:56;;;;;;;3.00;2.80;;;21.20;63.90;;;;;;4982379;28;20674;-67
2023/06/03 00:50:23;;;;;;;3.30;3.00;;;21.20;63.90;;;;;;4989653;28;20209;-67
2023/06/03 00:52:51;;;;;;;3.42;3.13;;;21.20;63.90;;;;;;4979973;28;20193;-67
2023/06/03 00:55:17;;;;;;;3.90;3.22;;;21.20;63.90;;;;;;4972583;28;20325;-67
2023/06/03 00:57:45;;;;;;;3.22;2.92;;;21.20;63.90;;;;;;4987207;28;20205;-67
2023/06/03 01:00:11;;;;;;;3.17;2.88;;;21.20;63.90;;;;;;5002164;28;20212;-70
2023/06/03 01:02:43;;;;;;;3.63;3.00;;;21.10;63.90;;;;;;4994629;28;20267;-67
2023/06/03 01:05:11;;;;;;;3.25;3.05;;;21.10;63.80;;;;;;4994406;28;20185;-67
2023/06/03 01:08:20;;;;;;;3.58;3.05;;;21.20;63.90;;;;;;4991149;28;20228;-67
2023/06/03 01:11:26;;;;;;;3.35;3.05;;;21.20;63.90;;;;;;4966691;28;20235;-67
2023/06/03 01:14:03;;;;;;;3.25;2.95;;;21.20;63.90;;;;;;4981883;28;20194;-67
2023/06/03 01:16:32;;;;;;;3.70;3.40;;;21.20;64.00;;;;;;4974644;28;20221;-67
2023/06/03 01:19:01;;;;;;;3.30;3.00;;;21.10;63.80;;;;;;4982811;28;20228;-67
2023/06/03 01:21:34;;;;;;;3.50;3.20;;;21.20;63.90;;;;;;4992404;28;20217;-67
2023/06/03 01:24:00;;;;;;;3.15;2.80;;;21.20;63.90;;;;;;4979742;28;20186;-67
2023/06/03 01:26:28;;;;;;;3.40;3.10;;;21.10;63.70;;;;;;4990399;28;20723;-67
2023/06/03 01:28:54;;;;;;;3.20;2.90;;;21.20;63.90;;;;;;4978990;28;20206;-67
2023/06/03 01:31:20;;;;;;;3.22;3.03;;;21.10;63.80;;;;;;4998500;28;20196;-67
2023/06/03 01:33:46;;;;;;;3.30;2.75;;;21.20;63.90;;;;;;4982311;28;20182;-67
2023/06/03 01:36:14;;;;;;;2.83;2.63;;;21.10;63.80;;;;;;4998507;28;20284;-67
2023/06/03 01:38:40;;;;;;;3.55;3.25;;;21.10;63.80;;;;;;4975486;28;20767;-67
2023/06/03 01:41:07;;;;;;;3.70;3.35;;;21.10;63.70;;;;;;4973947;28;20216;-67
2023/06/03 01:43:33;;;;;;;3.22;3.03;;;21.10;63.70;;;;;;4981410;28;20182;-67
2023/06/03 01:45:59;;;;;;;4.20;3.50;;;21.10;63.80;;;;;;4998391;28;20208;-68
2023/06/03 01:48:25;;;;;;;3.15;2.85;;;21.10;63.80;;;;;;4997934;28;20216;-67
2023/06/03 01:50:53;;;;;;;2.95;2.75;;;21.10;63.80;;;;;;4979400;28;20198;-67
2023/06/03 01:53:20;;;;;;;3.20;2.90;;;21.10;63.80;;;;;;4971110;28;20215;-67
2023/06/03 01:55:46;;;;;;;3.08;2.78;;;21.10;63.80;;;;;;4990015;28;20186;-67
2023/06/03 01:58:13;;;;;;;3.03;2.80;;;21.10;63.80;;;;;;4989788;28;20213;-70
2023/06/03 02:00:39;;;;;;;4.80;3.13;;;21.10;63.80;;;;;;4989657;28;20198;-67
2023/06/03 02:03:05;;;;;;;3.50;3.20;;;21.10;63.80;;;;;;4988346;28;20240;-67
2023/06/03 02:05:31;;;;;;;2.80;2.60;;;21.10;63.80;;;;;;4983373;28;20197;-67
2023/06/03 02:07:58;;;;;;;3.08;2.78;;;21.10;63.80;;;;;;4979378;28;20202;-67
2023/06/03 02:10:24;;;;;;;3.50;3.20;;;21.10;63.80;;;;;;4976882;28;20190;-67
2023/06/03 02:12:49;;;;;;;4.43;3.38;;;21.10;63.80;;;;;;4992989;28;20196;-67
2023/06/03 02:15:16;;;;;;;3.25;2.90;;;21.10;63.70;;;;;;4993090;28;20197;-67
2023/06/03 02:17:43;;;;;;;3.35;2.40;;;21.10;63.70;;;;;;4985051;28;20735;-67
2023/06/03 02:20:10;;;;;;;3.58;3.28;;;21.10;63.70;;;;;;4978017;28;20561;-67
2023/06/03 02:22:37;;;;;;;3.10;2.72;;;21.10;63.70;;;;;;4973392;28;20217;-68
2023/06/03 02:25:04;;;;;;;3.20;2.85;;;21.10;63.60;;;;;;4973054;28;20657;-67
2023/06/03 02:27:31;;;;;;;3.00;2.80;;;21.10;63.60;;;;;;4997763;28;20221;-67
2023/06/03 02:29:57;;;;;;;2.78;2.58;;;21.10;63.60;;;;;;4979790;28;20180;-67
2023/06/03 02:32:22;;;;;;;3.33;3.03;;;21.10;63.70;;;;;;4993118;28;20196;-68
2023/06/03 02:34:50;;;;;;;3.95;2.90;;;21.10;64.40;;;;;;4982054;28;20626;-67
2023/06/03 02:37:16;;;;;;;3.28;2.88;;;21.10;63.70;;;;;;4964887;28;20217;-67
2023/06/03 02:39:43;;;;;;;4.35;3.30;;;21.10;63.70;;;;;;4972501;28;20185;-67
2023/06/03 02:42:10;;;;;;;3.22;2.92;;;21.10;63.70;;;;;;4969767;28;20257;-67
2023/06/03 02:44:37;;;;;;;3.50;2.90;;;21.10;63.70;;;;;;5005308;28;20267;-67
2023/06/03 02:47:04;;;;;;;3.17;2.80;;;21.10;63.70;;;;;;4996888;28;20205;-67
2023/06/03 02:49:30;;;;;;;3.63;3.33;;;21.10;63.70;;;;;;4990429;28;20184;-67
2023/06/03 02:51:58;;;;;;;3.15;2.85;;;21.10;63.70;;;;;;4992497;28;20189;-65
2023/06/03 02:54:24;;;;;;;3.05;2.85;;;21.10;63.70;;;;;;4984137;28;20287;-67
2023/06/03 02:56:49;;;;;;;3.30;3.00;;;21.10;63.70;;;;;;4979902;28;20237;-68
2023/06/03 02:59:15;;;;;;;3.17;2.88;;;21.10;63.70;;;;;;4969621;28;20311;-67
2023/06/03 03:01:41;;;;;;;3.22;2.85;;;21.10;63.80;;;;;;4980356;28;20312;-67
2023/06/03 03:04:07;;;;;;;2.97;2.78;;;21.00;63.60;;;;;;4988142;28;20193;-67
2023/06/03 03:06:37;;;;;;;4.10;2.97;;;21.10;63.70;;;;;;5004774;28;20199;-67
2023/06/03 03:09:04;;;;;;;3.10;2.90;;;21.00;63.50;;;;;;4973400;28;20182;-67
2023/06/03 03:11:35;;;;;;;2.78;2.50;;;21.10;63.60;;;;;;4980573;28;20189;-67
2023/06/03 03:14:02;;;;;;;4.05;2.90;;;21.10;63.60;;;;;;4979832;28;20197;-67
2023/06/03 03:16:28;;;;;;;2.90;2.60;;;21.00;63.50;;;;;;4980591;28;20224;-67
2023/06/03 03:18:57;;;;;;;3.28;2.97;;;21.00;63.40;;;;;;4985102;28;20581;-67
2023/06/03 03:21:25;;;;;;;3.20;2.88;;;21.00;63.50;;;;;;4975500;28;20244;-68
2023/06/03 03:23:50;;;;;;;2.95;2.67;;;21.00;63.50;;;;;;4984008;28;20227;-67
2023/06/03 03:26:21;;;;;;;3.80;2.90;;;21.00;63.40;;;;;;4976665;28;20577;-67
2023/06/03 03:28:48;;;;;;;3.65;2.97;;;21.00;63.50;;;;;;4980443;28;20208;-67
2023/06/03 03:31:14;;;;;;;3.38;2.67;;;21.00;63.50;;;;;;4980529;28;20180;-67
2023/06/03 03:33:41;;;;;;;3.00;2.80;;;21.00;63.40;;;;;;4975045;28;20265;-67
2023/06/03 03:36:13;;;;;;;2.97;2.60;;;21.00;63.50;;;;;;4983774;28;20682;-67
2023/06/03 03:38:39;;;;;;;3.08;2.80;;;21.00;63.40;;;;;;4975628;28;20210;-67
2023/06/03 03:41:08;;;;;;;2.83;2.63;;;21.00;63.50;;;;;;4993809;28;20563;-68
2023/06/03 03:43:37;;;;;;;3.45;2.80;;;21.00;63.50;;;;;;4990203;28;20197;-67
2023/06/03 03:46:09;;;;;;;3.10;2.83;;;21.00;63.50;;;;;;4983787;28;20181;-67
2023/06/03 03:48:36;;;;;;;3.65;2.90;;;21.00;63.40;;;;;;4983263;28;20201;-67
2023/06/03 03:51:02;;;;;;;3.08;2.60;;;21.00;63.40;;;;;;4991412;28;20279;-67
2023/06/03 03:53:37;;;;;;;3.30;3.00;;;21.00;63.40;;;;;;4981912;28;20193;-67
2023/06/03 03:56:08;;;;;;;3.10;2.90;;;21.00;63.40;;;;;;4994545;28;20200;-66
2023/06/03 03:58:42;;;;;;;3.28;2.95;;;21.00;63.40;;;;;;4975027;28;20229;-67
2023/06/03 04:01:17;;;;;;;2.72;2.53;;;21.00;63.40;;;;;;4985002;28;20209;-67
2023/06/03 04:03:47;;;;;;;3.08;2.78;;;21.00;63.40;;;;;;4982808;28;20201;-67
2023/06/03 04:06:36;;;;;;;3.40;3.00;;;21.00;63.40;;;;;;4991546;28;20189;-67
2023/06/03 04:09:08;;;;;;;3.25;2.80;;;21.00;63.40;;;;;;4966736;28;20174;-67
2023/06/03 04:11:44;;;;;;;3.05;2.85;;;21.00;63.40;;;;;;4971740;28;20200;-67
2023/06/03 04:14:16;;;;;;;2.95;2.65;;;21.00;63.40;;;;;;4980332;28;20284;-67
2023/06/03 04:17:14;;;;;;;3.05;2.40;;;21.00;63.40;;;;;;4971698;28;20190;-67
2023/06/03 04:19:41;;;;;;;3.30;2.80;;;21.00;63.40;;;;;;4970588;28;20296;-67
2023/06/03 04:22:20;;;;;;;3.38;2.97;;;21.00;63.40;;;;;;4977654;28;20209;-67
2023/06/03 04:24:51;;;;;;;3.20;2.90;;;21.00;63.40;;;;;;4983317;28;20185;-67
2023/06/03 04:27:16;;;;;;;3.15;2.85;;;21.00;63.50;;;;;;4998558;28;20212;-67
2023/06/03 04:29:42;;;;;;;4.00;2.88;;;21.00;63.40;;;;;;4984114;28;20185;-67
2023/06/03 04:32:08;;;;;;;2.78;2.53;;;20.90;63.40;;;;;;4991526;28;20719;-67
2023/06/03 04:34:36;;;;;;;3.67;2.60;;;21.00;63.40;;;;;;4975496;28;20198;-66
2023/06/03 04:37:02;;;;;;;2.60;2.38;;;21.00;63.50;;;;;;4989787;28;20213;-66
2023/06/03 04:39:29;;;;;;;3.47;2.58;;;21.00;63.40;;;;;;4975044;28;20190;-67
2023/06/03 04:41:56;;;;;;;2.90;2.70;;;21.00;63.40;;;;;;4979611;28;20216;-67
2023/06/03 04:44:28;;;;;;;2.55;2.35;;;21.00;63.50;;;;;;4978826;28;20190;-67
2023/06/03 04:46:53;;;;;;;3.47;2.80;;;20.90;63.30;;;;;;4979832;28;20186;-67
2023/06/03 04:49:19;;;;;;;3.15;2.85;;;21.00;63.40;;;;;;4975044;28;20190;-67
2023/06/03 04:51:45;;;;;;;4.25;2.97;;;21.00;63.40;;;;;;5001806;28;20198;-67
2023/06/03 04:54:13;;;;;;;4.13;2.63;;;21.00;63.40;;;;;;4987940;28;20192;-67
2023/06/03 04:56:45;;;;;;;2.97;2.60;;;21.00;63.40;;;;;;5007229;28;20192;-67
2023/06/03 04:59:11;;;;;;;2.97;2.70;;;21.00;63.40;;;;;;4983180;28;20190;-67
2023/06/03 05:01:44;;;;;;;3.13;2.70;;;20.90;63.30;;;;;;4984893;28;20217;-67
2023/06/03 05:04:11;;;;;;;2.72;2.53;;;21.00;63.40;;;;;;4994271;28;20215;-66
2023/06/03 05:06:39;;;;;;;3.67;3.10;;;21.00;63.40;;;;;;4992153;28;20195;-68
2023/06/03 05:09:05;;;;;;;3.03;2.63;;;21.00;63.30;;;;;;4974834;28;20260;-68
2023/06/03 05:11:32;;;;;;;3.33;3.03;;;21.00;63.30;;;;;;4972612;28;20198;-68
2023/06/03 05:13:58;;;;;;;3.00;2.70;;;21.00;63.30;;;;;;4994594;28;20592;-66
2023/06/03 05:16:24;;;;;;;3.28;2.80;;;21.00;63.30;;;;;;4978516;28;20193;-68
2023/06/03 05:18:50;;;;;;;2.58;2.38;;;21.00;63.30;;;;;;4982232;28;20208;-67
2023/06/03 05:21:19;;;;;;;3.05;2.70;;;21.00;63.30;;;;;;4990988;28;20217;-68
2023/06/03 05:23:46;;;;;;;3.25;2.60;;;21.00;63.30;;;;;;4992847;28;20185;-68
2023/06/03 05:26:12;;;;;;;2.90;2.60;;;21.00;63.30;;;;;;4987805;28;20661;-68
2023/06/03 05:28:38;;;;;;;2.70;2.50;;;21.00;63.20;;;;;;4990200;28;20208;-67
2023/06/03 05:31:04;;;;;;;4.07;2.75;;;21.00;63.20;;;;;;4977970;28;20219;-68
2023/06/03 05:33:35;;;;;;;4.10;2.63;;;21.00;63.20;;;;;;4977279;28;20208;-67
2023/06/03 05:36:07;;;;;;;2.95;2.65;;;21.00;63.20;;;;;;4993779;28;20212;-68
2023/06/03 05:38:32;;;;;;;3.25;2.88;;;21.00;63.10;;;;;;4976436;28;20237;-67
2023/06/03 05:41:03;;;;;;;2.75;2.50;;;21.00;63.10;;;;;;4982116;28;20237;-67
2023/06/03 05:43:30;;;;;;;4.50;2.83;;;21.00;63.10;;;;;;4998761;28;20259;-68
2023/06/03 05:45:57;;;;;;;2.65;2.45;;;21.00;63.10;;;;;;4970458;28;20181;-68
2023/06/03 05:48:23;;;;;;;2.83;2.63;;;21.00;63.10;;;;;;4962170;28;20243;-68
2023/06/03 05:50:54;;;;;;;3.08;2.85;;;21.00;63.10;;;;;;4989939;28;20251;-68
2023/06/03 05:53:25;;;;;;;2.85;2.65;;;21.00;63.90;;;;;;4989296;28;20594;-67
2023/06/03 05:55:53;;;;;;;2.88;2.58;;;21.00;63.10;;;;;;4990170;28;20248;-68
2023/06/03 05:58:21;;;;;;;3.10;2.80;;;21.00;63.10;;;;;;4998315;28;20218;-68
2023/06/03 06:00:47;;;;;;;3.15;2.72;;;21.00;63.10;;;;;;4982943;28;20185;-68
2023/06/03 06:03:15;;;;;;;2.80;2.60;;;21.00;63.10;;;;;;4981898;28;20217;-68
2023/06/03 06:05:41;;;;;;;3.15;2.78;;;21.00;63.10;;;;;;4976894;28;20224;-68
2023/06/03 06:08:07;;;;;;;3.25;2.92;;;21.00;63.10;;;;;;4979346;28;20210;-68
2023/06/03 06:10:34;;;;;;;2.70;2.50;;;21.00;63.00;;;;;;4973365;28;20181;-68
2023/06/03 06:13:00;;;;;;;2.72;2.53;;;21.00;63.00;;;;;;4993979;28;20188;-68
2023/06/03 06:15:30;;;;;;;3.67;2.85;;;21.00;63.10;;;;;;4977910;28;20221;-68
2023/06/03 06:17:56;;;;;;;3.10;2.80;;;21.00;63.00;;;;;;4973310;28;20252;-68
2023/06/03 06:20:23;;;;;;;3.08;2.80;;;21.00;63.00;;;;;;4973443;28;20273;-69
2023/06/03 06:22:49;;;;;;;3.72;2.88;;;21.00;63.00;;;;;;4973295;28;20213;-68
2023/06/03 06:25:16;;;;;;;3.80;2.85;;;21.00;63.00;;;;;;4981634;28;20188;-69
2023/06/03 06:27:43;;;;;;;2.97;2.67;;;21.00;63.00;;;;;;4973118;28;20233;-68
2023/06/03 06:30:14;;;;;;;2.97;2.65;;;21.00;63.00;;;;;;4973215;28;20213;-68
2023/06/03 06:32:51;;;;;;;2.92;2.63;;;21.00;62.90;;;;;;4989310;28;20194;-68
2023/06/03 06:35:35;;;;;;;3.53;2.88;;;21.00;63.00;;;;;;4973210;28;20201;-68
2023/06/03 06:38:03;;;;;;;2.90;2.70;;;21.00;63.00;;;;;;4972799;28;20240;-70
2023/06/03 06:40:40;;;;;;;2.83;2.55;;;21.00;62.90;;;;;;4989147;28;20280;-68
2023/06/03 06:43:14;;;;;;;3.45;2.90;;;21.00;62.90;;;;;;4973195;28;20181;-68
2023/06/03 06:45:44;;;;;;;4.13;3.00;;;21.00;62.90;;;;;;4973129;28;20185;-68
2023/06/03 06:48:12;;;;;;;2.63;2.42;;;21.00;62.90;;;;;;4972724;28;20212;-70
2023/06/03 06:50:47;;;;;;;2.78;2.58;;;21.00;62.90;;;;;;4971700;28;20190;-69
2023/06/03 06:53:18;;;;;;;3.08;2.70;;;21.00;63.00;;;;;;4984309;28;20223;-67
2023/06/03 06:55:49;;;;;;;2.65;2.30;;;21.00;62.80;;;;;;4982589;28;20185;-69
2023/06/03 06:58:18;;;;;;;3.33;3.03;;;21.00;63.00;;;;;;4973155;28;20217;-68
2023/06/03 07:00:46;;;;;;;3.92;2.90;;;21.00;62.90;;;;;;4988656;28;20189;-68
2023/06/03 07:03:18;;;;;;;2.95;2.65;;;21.00;62.90;;;;;;4981766;28;20619;-68
2023/06/03 07:05:52;;;;;;;3.05;2.75;;;21.00;62.90;;;;;;4972493;28;20277;-68
2023/06/03 07:08:20;;;;;;;3.47;2.72;;;21.10;63.00;;;;;;4988902;28;20215;-68
2023/06/03 07:10:46;;;;;;;2.80;2.58;;;21.00;62.90;;;;;;4990602;28;20225;-68
2023/06/03 07:13:17;;;;;;;2.72;2.53;;;21.10;62.90;;;;;;4978347;28;20182;-68
2023/06/03 07:15:44;;;;;;;2.78;2.58;;;21.10;63.00;;;;;;4981201;28;20212;-68
2023/06/03 07:18:10;;;;;;;3.75;3.33;;;21.00;62.90;;;;;;4972814;28;20256;-68
2023/06/03 07:20:42;;;;;;;3.28;2.95;;;21.00;62.80;;;;;;4982578;28;20182;-68
2023/06/03 07:23:28;;;;;;;3.50;2.97;;;21.10;62.90;;;;;;4983705;28;20247;-68
2023/06/03 07:25:56;;;;;;;2.83;2.63;;;21.10;62.90;;;;;;4984321;28;20192;-68
2023/06/03 07:28:33;;;;;;;3.03;2.63;;;21.00;62.80;;;;;;4983752;28;20213;-68
2023/06/03 07:31:09;;;;;;;3.08;2.78;;;21.10;63.00;;;;;;4976623;28;20239;-68
2023/06/03 07:33:55;;;;;;;2.60;2.40;;;21.10;62.90;;;;;;4975856;28;20185;-70
2023/06/03 07:36:30;;;;;;;3.40;2.80;;;21.10;62.80;;;;;;4992423;28;20253;-68
2023/06/03 07:39:02;;;;;;;3.63;3.05;;;21.10;62.90;;;;;;4972438;28;20224;-68
2023/06/03 07:41:44;;;;;;;3.13;2.72;;;21.10;62.90;;;;;;4969498;28;20242;-68
2023/06/03 07:44:45;;;;;;;3.50;3.20;;;21.10;62.90;;;;;;4975255;28;20204;-68
2023/06/03 07:47:17;;;;;;;3.20;2.90;;;21.10;62.90;;;;;;4989728;28;20259;-69
2023/06/03 07:49:48;;;;;;;3.35;3.05;;;21.10;62.90;;;;;;4989313;28;20193;-68
2023/06/03 07:52:19;;;;;;;3.13;2.78;;;21.10;62.90;;;;;;4988919;28;20181;-68
2023/06/03 07:54:45;;;;;;;3.00;2.78;;;21.10;62.90;;;;;;5004611;28;20261;-67
2023/06/03 07:57:14;;;;;;;3.33;2.95;;;21.10;62.90;;;;;;4971997;28;20300;-68
2023/06/03 07:59:55;;;;;;;3.15;2.90;;;21.20;63.10;;;;;;4989636;28;20200;-68
2023/06/03 08:02:21;;;;;;;3.00;2.45;;;21.20;63.00;;;;;;4989588;28;20292;-68
2023/06/03 08:04:47;;;;;;;2.80;2.58;;;21.10;62.90;;;;;;5001461;28;20186;-68
2023/06/03 08:07:15;;;;;;;3.75;3.28;;;21.20;63.20;;;;;;4988832;28;20313;-68
2023/06/03 08:09:41;;;;;;;3.72;3.42;;;21.20;63.30;;;;;;4975852;28;20194;-67
2023/06/03 08:12:08;;;;;;;4.43;3.65;;;21.20;63.20;;;;;;5004112;28;20197;-68
2023/06/03 08:14:39;;;;;;;3.95;3.55;;;21.20;63.20;;;;;;4996160;28;20289;-68
2023/06/03 08:17:13;;;;;;;3.83;3.30;;;21.20;63.20;;;;;;4991972;28;20320;-68
2023/06/03 08:19:44;;;;;;;3.40;3.10;;;21.20;63.20;;;;;;4994854;28;20199;-67
2023/06/03 08:22:40;;;;;;;4.22;3.08;;;21.20;63.20;;;;;;4975520;28;20205;-68
2023/06/03 08:25:07;;;;;;;3.47;3.17;;;21.20;63.20;;;;;;4984104;28;20196;-69
2023/06/03 08:27:34;;;;;;;4.63;3.30;;;21.20;63.20;;;;;;4994910;28;20232;-68
2023/06/03 08:30:03;;;;;;;5.47;3.40;;;21.20;63.20;;;;;;5000069;28;20197;-68
2023/06/03 08:32:33;;;;;;;4.30;3.80;;;21.20;63.20;;;;;;4982036;28;20255;-68
2023/06/03 08:34:59;;;;;;;3.75;3.42;;;21.20;63.20;;;;;;4986678;28;20189;-68
2023/06/03 08:37:26;;;;;;;3.10;2.80;;;21.20;63.10;;;;;;4980543;28;20240;-68
2023/06/03 08:39:54;;;;;;;3.85;2.95;;;21.30;63.30;;;;;;4992991;28;20256;-68
2023/06/03 08:42:28;;;;;;;4.00;3.40;;;21.30;63.10;;;;;;4986586;28;20216;-68
2023/06/03 08:45:13;;;;;;;3.72;3.33;;;21.30;63.10;;;;;;4984480;28;20214;-68
2023/06/03 08:48:05;;;;;;;4.43;3.60;;;21.30;63.10;;;;;;4991588;28;20218;-68
2023/06/03 08:50:34;;;;;;;5.80;3.92;;;21.30;63.10;;;;;;5006236;28;20193;-67
2023/06/03 08:53:08;;;;;;;4.43;4.00;;;21.40;63.10;;;;;;5010843;28;20279;-68
2023/06/03 08:55:37;;;;;;;4.60;4.20;;;21.30;63.00;;;;;;4986536;28;20684;-68
2023/06/03 08:58:26;;;;;;;4.18;3.78;;;21.40;63.10;;;;;;4974916;28;20225;-68
2023/06/03 09:00:59;;;;;;;4.70;3.92;;;21.40;63.20;;;;;;4993383;28;20200;-68
2023/06/03 09:03:25;;;;;;;3.92;3.63;;;21.30;63.00;;;;;;4986474;28;20185;-68
2023/06/03 09:05:53;;;;;;;3.90;3.60;;;21.30;63.00;;;;;;4976616;28;20194;-68
2023/06/03 09:08:20;;;;;;;3.85;3.40;;;21.40;63.10;;;;;;4974317;28;20202;-68
2023/06/03 09:10:47;;;;;;;4.75;3.60;;;21.30;63.00;;;;;;4974621;28;20285;-70
2023/06/03 09:13:17;;;;;;;4.13;3.72;;;21.30;63.80;;;;;;4979791;28;20211;-67
2023/06/03 09:15:43;;;;;;;5.18;4.00;;;21.40;63.10;;;;;;4988727;28;20192;-69
2023/06/03 09:18:13;;;;;;;4.57;4.10;;;21.30;63.10;;;;;;4978083;28;20214;-69
2023/06/03 09:20:38;;;;;;;4.35;3.95;;;21.40;63.20;;;;;;4986485;28;20204;-66
2023/06/03 09:23:06;;;;;;;4.18;3.78;;;21.40;63.20;;;;;;4982809;28;20191;-68
2023/06/03 09:25:32;;;;;;;4.85;4.10;;;21.30;63.20;;;;;;4990648;28;20190;-68
2023/06/03 09:27:57;;;;;;;6.00;4.30;;;21.40;63.30;;;;;;4990716;28;20215;-68
2023/06/03 09:30:23;;;;;;;5.28;3.97;;;21.40;63.30;;;;;;4979692;28;20197;-68
2023/06/03 09:32:49;;;;;;;4.25;3.85;;;21.40;63.40;;;;;;4984747;28;20228;-68
2023/06/03 09:35:15;;;;;;;5.60;4.07;;;21.40;63.40;;;;;;4974364;28;20202;-68
2023/06/03 09:38:04;;;;;;;4.82;3.90;;;21.40;63.40;;;;;;4975807;28;20242;-68
2023/06/03 09:40:32;;;;;;;5.35;4.18;;;21.40;63.40;;;;;;4972211;28;20239;-69
2023/06/03 09:42:58;;;;;;;4.53;4.13;;;21.40;63.40;;;;;;4985404;28;20217;-69
2023/06/03 09:45:35;;;;;;;4.03;3.65;;;21.40;63.40;;;;;;4981241;28;20194;-68
2023/06/03 09:48:02;;;;;;;4.47;4.07;;;21.40;63.30;;;;;;4983096;28;20217;-68
2023/06/03 09:50:31;;;;;;;4.28;3.95;;;21.30;63.40;;;;;;4990389;28;20249;-68
2023/06/03 09:52:59;;;;;;;4.55;4.10;;;21.40;63.50;;;;;;4998372;28;20198;-68
2023/06/03 09:55:36;;;;;;;4.25;3.47;;;21.40;63.60;;;;;;5003782;28;20220;-68
2023/06/03 09:58:09;;;;;;;5.07;4.50;;;21.40;63.50;;;;;;4982648;28;20326;-68
2023/06/03 10:00:50;;;;;;;4.80;4.20;;;21.40;63.50;;;;;;4981853;28;20661;-66
2023/06/03 10:03:22;;;;;;;6.65;4.25;;;21.40;63.50;;;;;;4986468;28;20184;-68
2023/06/03 10:05:48;;;;;;;5.07;4.57;;;21.40;63.50;;;;;;5009098;28;20204;-68
2023/06/03 10:08:14;;;;;;;5.32;3.90;;;21.40;63.60;;;;;;4973514;28;20206;-67
2023/06/03 10:11:00;;;;;;;4.40;4.00;;;21.40;63.60;;;;;;4979112;28;20269;-68
2023/06/03 10:13:26;;;;;;;6.10;4.15;;;21.40;63.60;;;;;;4981826;28;20189;-67
2023/06/03 10:15:53;;;;;;;4.75;4.28;;;21.40;63.50;;;;;;4989868;28;20190;-68
2023/06/03 10:18:41;;;;;;;4.45;3.67;;;21.50;63.70;;;;;;4977779;28;20240;-68
2023/06/03 10:21:12;;;;;;;4.75;4.32;;;21.40;63.60;;;;;;4977918;28;20204;-68
2023/06/03 10:23:41;;;;;;;4.68;4.22;;;21.40;63.60;;;;;;4992542;28;20247;-68
2023/06/03 10:26:07;;;;;;;5.28;4.25;;;21.50;63.60;;;;;;4984593;28;20197;-68
2023/06/03 10:28:35;;;;;;;5.15;4.55;;;21.40;63.60;;;;;;5009279;28;20295;-68
2023/06/03 10:31:04;;;;;;;5.35;4.85;;;21.40;63.70;;;;;;4990915;28;20194;-67
2023/06/03 10:33:32;;;;;;;6.05;4.40;;;21.50;63.70;;;;;;4982514;28;20284;-67
2023/06/03 10:36:02;;;;;;;4.80;4.38;;;21.50;63.80;;;;;;4997596;28;20715;-66
2023/06/03 10:38:28;;;;;;;5.97;4.22;;;21.50;63.80;;;;;;4989126;28;20214;-70
2023/06/03 10:40:54;;;;;;;4.43;4.03;;;21.40;63.80;;;;;;4981022;28;20193;-68
2023/06/03 10:43:23;;;;;;;4.55;4.10;;;21.50;63.80;;;;;;4975429;28;20197;-68
2023/06/03 10:45:53;;;;;;;4.82;4.20;;;21.50;63.70;;;;;;4997271;28;20186;-68
2023/06/03 10:48:23;;;;;;;5.10;3.95;;;21.50;63.70;;;;;;4973244;28;20741;-67
2023/06/03 10:51:16;;;;;;;4.50;4.10;;;21.50;63.80;;;;;;4982411;28;20189;-68
2023/06/03 10:54:33;;;;;;;4.22;3.83;;;21.50;63.70;;;;;;4992327;28;20196;-69
2023/06/03 10:57:15;;;;;;;4.68;4.03;;;21.50;63.70;;;;;;4980774;28;20221;-68
2023/06/03 10:59:44;;;;;;;4.65;4.25;;;21.50;63.70;;;;;;4987909;28;20195;-70
2023/06/03 11:02:12;;;;;;;4.93;4.10;;;21.50;63.80;;;;;;4979474;28;20205;-68
2023/06/03 11:04:39;;;;;;;4.72;4.30;;;21.50;63.70;;;;;;4981615;28;20213;-68
2023/06/03 11:07:30;;;;;;;4.55;4.18;;;21.50;63.70;;;;;;4972412;28;20217;-68
2023/06/03 11:09:56;;;;;;;5.18;4.63;;;21.50;63.70;;;;;;4972652;28;20208;-68
2023/06/03 11:12:50;;;;;;;4.95;4.38;;;21.50;63.70;;;;;;4969483;28;20190;-68
2023/06/03 11:15:16;;;;;;;6.50;4.65;;;21.50;63.60;;;;;;4968760;28;20719;-68
2023/06/03 11:18:15;;;;;;;5.00;4.50;;;21.50;63.70;;;;;;4972953;28;20720;-69
2023/06/03 11:20:41;;;;;;;5.03;4.47;;;21.50;63.70;;;;;;4971574;28;20182;-68
2023/06/03 11:23:07;;;;;;;4.28;3.90;;;21.50;63.70;;;;;;4982824;28;20233;-68
2023/06/03 11:25:33;;;;;;;5.35;4.80;;;21.50;63.60;;;;;;4985001;28;20193;-68
2023/06/03 11:28:29;;;;;;;4.65;4.25;;;21.50;63.60;;;;;;4973736;28;20210;-68
2023/06/03 11:30:56;;;;;;;4.88;4.47;;;21.50;63.40;;;;;;4989259;28;20193;-68
2023/06/03 11:33:21;;;;;;;5.00;4.60;;;21.50;63.50;;;;;;4975982;28;20238;-68
2023/06/03 11:35:47;;;;;;;4.55;4.15;;;21.50;63.50;;;;;;4971863;28;20189;-68
2023/06/03 11:38:14;;;;;;;4.93;4.50;;;21.50;63.60;;;;;;4990048;28;20677;-68
2023/06/03 11:40:46;;;;;;;5.63;4.57;;;21.50;63.70;;;;;;4980702;28;20194;-68
2023/06/03 11:43:13;;;;;;;5.13;4.68;;;21.50;63.60;;;;;;4980411;28;20199;-68
2023/06/03 11:45:39;;;;;;;4.72;4.32;;;21.50;63.60;;;;;;4997375;28;20195;-68
2023/06/03 11:48:08;;;;;;;4.57;4.18;;;21.50;63.70;;;;;;4972683;28;20206;-69
2023/06/03 11:50:57;;;;;;;4.28;3.88;;;21.50;63.70;;;;;;4983967;28;20195;-69
2023/06/03 11:53:37;;;;;;;4.72;4.32;;;21.50;63.70;;;;;;4981436;28;20582;-69
2023/06/03 11:56:09;;;;;;;4.40;4.00;;;21.50;63.60;;;;;;4971650;28;20193;-69
2023/06/03 11:58:37;;;;;;;4.90;3.88;;;21.50;63.60;;;;;;4991303;28;20581;-69
2023/06/03 12:01:19;;;;;;;5.65;4.25;;;21.50;63.30;;;;;;4989874;28;20178;-68
2023/06/03 12:04:02;;;;;;;4.38;3.97;;;21.60;63.50;;;;;;4991845;28;20193;-69
2023/06/03 12:06:36;;;;;;;5.20;4.70;;;21.50;63.40;;;;;;4980583;28;20189;-68
2023/06/03 12:09:02;;;;;;;4.97;4.57;;;21.60;63.60;;;;;;4972736;28;20287;-68
2023/06/03 12:11:40;;;;;;;4.93;4.50;;;21.60;63.50;;;;;;4976982;28;20275;-68
2023/06/03 12:14:08;;;;;;;4.78;4.32;;;21.60;63.70;;;;;;4999161;28;20197;-68
2023/06/03 12:16:37;;;;;;;5.13;4.70;;;21.50;63.50;;;;;;4981309;28;20217;-68
2023/06/03 12:19:06;;;;;;;4.63;4.22;;;21.60;63.60;;;;;;4979493;28;20240;-68
2023/06/03 12:21:35;;;;;;;4.60;4.20;;;21.60;63.60;;;;;;4977375;28;20668;-69
2023/06/03 12:24:12;;;;;;;4.90;4.38;;;21.60;63.50;;;;;;4979890;28;20193;-68
2023/06/03 12:26:41;;;;;;;4.68;4.28;;;21.50;63.30;;;;;;5002580;28;20197;-69
2023/06/03 12:29:12;;;;;;;4.43;4.03;;;21.60;63.50;;;;;;4982892;28;20644;-68
2023/06/03 12:31:38;;;;;;;5.18;4.30;;;21.60;63.40;;;;;;4983075;28;20283;-68
2023/06/03 12:34:05;;;;;;;4.63;4.05;;;21.60;63.30;;;;;;4991360;28;20204;-69
2023/06/03 12:36:49;;;;;;;5.13;4.63;;;21.60;63.30;;;;;;4982310;28;20590;-69
2023/06/03 12:39:18;;;;;;;5.05;4.65;;;21.60;63.40;;;;;;4971399;28;20284;-68
2023/06/03 12:41:52;;;;;;;5.10;4.70;;;21.60;63.60;;;;;;4979805;28;20237;-68
2023/06/03 12:44:17;;;;;;;4.70;4.28;;;21.60;63.50;;;;;;4980079;28;20579;-68
2023/06/03 12:46:43;;;;;;;4.70;4.40;;;21.60;63.50;;;;;;4990352;28;20193;-69
2023/06/03 12:49:15;;;;;;;4.85;4.45;;;21.60;63.50;;;;;;4989913;28;20217;-68
2023/06/03 12:51:42;;;;;;;4.95;4.55;;;21.60;63.60;;;;;;4997911;28;20558;-68
2023/06/03 12:54:08;;;;;;;5.18;4.30;;;21.60;63.50;;;;;;4986165;28;20279;-68
2023/06/03 12:56:34;;;;;;;4.95;4.45;;;21.60;63.40;;;;;;4981257;28;20293;-68
2023/06/03 12:59:00;;;;;;;4.60;4.20;;;21.60;63.40;;;;;;4966842;28;20208;-68
2023/06/03 13:01:27;;;;;;;5.10;4.60;;;21.60;63.60;;;;;;4979184;28;20212;-69
2023/06/03 13:03:55;;;;;;;4.95;4.55;;;21.60;63.50;;;;;;4994316;28;20287;-68